sensor_id;sensor_type;location;lat;lon;timestamp;pressure;altitude;pressure_sealevel;temperature;humidity
45050;BME280;61798;48.048;-1.928;2023-03-25T00:01:17;100285.25;;;6.91;100.00
45050;BME280;61798;48.048;-1.928;2023-03-25T00:03:26;100290.81;;;6.81;100.00
45050;BME280;61798;48.048;-1.928;2023-03-25T00:05:33;100291.81;;;6.80;100.00
45050;BME280;61798;48.048;-1.928;2023-03-25T00:07:41;100298.25;;;6.86;100.00
45050;BME280;61798;48.048;-1.928;2023-03-25T00:09:48;100298.25;;;6.86;100.00
45050;BME280;61798;48.048;-1.928;2023-03-25T00:11:55;100312.25;;;6.88;100.00
45050;BME280;61798;48.048;-1.928;2023-03-25T00:14:02;100303.13;;;6.82;100.00
45050;BME280;61798;48.048;-1.928;2023-03-25T00:16:10;100301.16;;;6.76;100.00
45050;BME280;61798;48.048;-1.928;2023-03-25T00:18:20;100301.44;;;6.81;100.00
45050;BME280;61798;48.048;-1.928;2023-03-25T00:20:28;100279.44;;;6.64;100.00
45050;BME280;61798;48.048;-1.928;2023-03-25T00:22:36;100308.44;;;6.82;100.00
45050;BME280;61798;48.048;-1.928;2023-03-25T00:24:47;100309.75;;;6.86;100.00
45050;BME280;61798;48.048;-1.928;2023-03-25T00:26:55;100273.69;;;6.52;100.00
45050;BME280;61798;48.048;-1.928;2023-03-25T00:29:04;100291.41;;;6.68;100.00
45050;BME280;61798;48.048;-1.928;2023-03-25T00:31:13;100312.16;;;6.73;100.00
45050;BME280;61798;48.048;-1.928;2023-03-25T00:33:20;100305.34;;;6.70;100.00
45050;BME280;61798;48.048;-1.928;2023-03-25T00:35:27;100289.63;;;6.60;100.00
45050;BME280;61798;48.048;-1.928;2023-03-25T00:37:34;100258.22;;;6.47;100.00
45050;BME280;61798;48.048;-1.928;2023-03-25T00:39:44;100302.88;;;6.69;100.00
45050;BME280;61798;48.048;-1.928;2023-03-25T00:41:52;100304.41;;;6.63;100.00
45050;BME280;61798;48.048;-1.928;2023-03-25T00:43:59;100321.81;;;6.74;100.00
45050;BME280;61798;48.048;-1.928;2023-03-25T00:46:05;100321.56;;;6.60;100.00
45050;BME280;61798;48.048;-1.928;2023-03-25T00:48:13;100322.03;;;6.64;100.00
45050;BME280;61798;48.048;-1.928;2023-03-25T00:50:19;100308.97;;;6.45;100.00
45050;BME280;61798;48.048;-1.928;2023-03-25T00:52:28;100309.94;;;6.53;100.00
45050;BME280;61798;48.048;-1.928;2023-03-25T00:54:35;100321.09;;;6.57;100.00
45050;BME280;61798;48.048;-1.928;2023-03-25T00:56:43;100318.94;;;6.52;100.00
45050;BME280;61798;48.048;-1.928;2023-03-25T00:58:51;100309.31;;;6.42;100.00
45050;BME280;61798;48.048;-1.928;2023-03-25T01:00:58;100309.00;;;6.37;100.00
45050;BME280;61798;48.048;-1.928;2023-03-25T01:03:08;100320.28;;;6.48;100.00
45050;BME280;61798;48.048;-1.928;2023-03-25T01:05:40;100331.91;;;6.55;100.00
45050;BME280;61798;48.048;-1.928;2023-03-25T01:07:53;100328.94;;;6.41;100.00
45050;BME280;61798;48.048;-1.928;2023-03-25T01:10:07;100317.66;;;6.39;100.00
45050;BME280;61798;48.048;-1.928;2023-03-25T01:12:19;100327.97;;;6.34;100.00
45050;BME280;61798;48.048;-1.928;2023-03-25T01:14:51;100343.28;;;6.40;100.00
45050;BME280;61798;48.048;-1.928;2023-03-25T01:17:19;100329.97;;;6.40;100.00
45050;BME280;61798;48.048;-1.928;2023-03-25T01:19:36;100327.03;;;6.27;100.00
45050;BME280;61798;48.048;-1.928;2023-03-25T01:21:47;100341.97;;;6.36;100.00
45050;BME280;61798;48.048;-1.928;2023-03-25T01:23:56;100335.31;;;6.32;100.00
45050;BME280;61798;48.048;-1.928;2023-03-25T01:26:08;100320.38;;;6.22;100.00
45050;BME280;61798;48.048;-1.928;2023-03-25T01:28:31;100337.66;;;6.27;100.00
45050;BME280;61798;48.048;-1.928;2023-03-25T01:30:47;100343.94;;;6.34;100.00
45050;BME280;61798;48.048;-1.928;2023-03-25T01:33:00;100325.69;;;6.22;100.00
45050;BME280;61798;48.048;-1.928;2023-03-25T01:35:31;100317.38;;;6.26;100.00
45050;BME280;61798;48.048;-1.928;2023-03-25T01:38:06;100328.69;;;6.28;100.00
45050;BME280;61798;48.048;-1.928;2023-03-25T01:40:33;100337.00;;;6.33;100.00
45050;BME280;61798;48.048;-1.928;2023-03-25T01:43:11;100333.66;;;6.31;100.00
45050;BME280;61798;48.048;-1.928;2023-03-25T01:45:29;100340.13;;;6.37;100.00
45050;BME280;61798;48.048;-1.928;2023-03-25T01:47:39;100324.03;;;6.21;100.00
45050;BME280;61798;48.048;-1.928;2023-03-25T01:49:47;100319.03;;;6.27;100.00
45050;BME280;61798;48.048;-1.928;2023-03-25T01:52:24;100332.81;;;6.30;100.00
45050;BME280;61798;48.048;-1.928;2023-03-25T01:54:33;100329.03;;;6.24;100.00
45050;BME280;61798;48.048;-1.928;2023-03-25T01:56:45;100338.00;;;6.32;100.00
45050;BME280;61798;48.048;-1.928;2023-03-25T01:58:54;100304.94;;;6.09;100.00
45050;BME280;61798;48.048;-1.928;2023-03-25T02:01:01;100315.09;;;6.14;100.00
45050;BME280;61798;48.048;-1.928;2023-03-25T02:03:10;100331.00;;;6.31;100.00
45050;BME280;61798;48.048;-1.928;2023-03-25T02:08:08;100337.19;;;6.23;100.00
45050;BME280;61798;48.048;-1.928;2023-03-25T02:10:16;100353.00;;;6.24;100.00
45050;BME280;61798;48.048;-1.928;2023-03-25T02:12:24;100312.28;;;5.99;100.00
45050;BME280;61798;48.048;-1.928;2023-03-25T02:14:33;100357.63;;;6.31;100.00
45050;BME280;61798;48.048;-1.928;2023-03-25T02:17:07;100356.97;;;6.29;100.00
45050;BME280;61798;48.048;-1.928;2023-03-25T02:27:40;100364.25;;;6.35;100.00
45050;BME280;61798;48.048;-1.928;2023-03-25T02:38:17;100368.28;;;6.22;100.00
45050;BME280;61798;48.048;-1.928;2023-03-25T02:40:28;100371.94;;;6.21;100.00
45050;BME280;61798;48.048;-1.928;2023-03-25T02:43:50;100368.09;;;6.32;100.00
45050;BME280;61798;48.048;-1.928;2023-03-25T02:45:55;100371.44;;;6.26;100.00
45050;BME280;61798;48.048;-1.928;2023-03-25T02:48:07;100368.41;;;6.29;100.00
45050;BME280;61798;48.048;-1.928;2023-03-25T02:50:23;100373.75;;;6.29;100.00
45050;BME280;61798;48.048;-1.928;2023-03-25T02:52:46;100375.59;;;6.29;100.00
45050;BME280;61798;48.048;-1.928;2023-03-25T02:54:57;100365.81;;;6.21;100.00
45050;BME280;61798;48.048;-1.928;2023-03-25T02:57:13;100371.91;;;6.30;100.00
45050;BME280;61798;48.048;-1.928;2023-03-25T02:59:23;100349.69;;;6.14;100.00
45050;BME280;61798;48.048;-1.928;2023-03-25T03:01:40;100341.53;;;6.16;100.00
45050;BME280;61798;48.048;-1.928;2023-03-25T03:03:47;100370.09;;;6.30;100.00
45050;BME280;61798;48.048;-1.928;2023-03-25T03:05:58;100372.88;;;6.37;100.00
45050;BME280;61798;48.048;-1.928;2023-03-25T03:08:56;100371.88;;;6.38;100.00
45050;BME280;61798;48.048;-1.928;2023-03-25T03:21:20;100372.84;;;6.45;100.00
45050;BME280;61798;48.048;-1.928;2023-03-25T03:23:35;100380.84;;;6.45;100.00
45050;BME280;61798;48.048;-1.928;2023-03-25T03:25:59;100368.22;;;6.39;100.00
45050;BME280;61798;48.048;-1.928;2023-03-25T03:28:24;100370.56;;;6.34;100.00
45050;BME280;61798;48.048;-1.928;2023-03-25T03:30:43;100390.34;;;6.48;100.00
45050;BME280;61798;48.048;-1.928;2023-03-25T03:33:01;100385.16;;;6.47;100.00
45050;BME280;61798;48.048;-1.928;2023-03-25T03:35:26;100403.28;;;6.60;100.00
45050;BME280;61798;48.048;-1.928;2023-03-25T03:37:38;100397.78;;;6.53;100.00
45050;BME280;61798;48.048;-1.928;2023-03-25T03:39:47;100402.59;;;6.58;100.00
45050;BME280;61798;48.048;-1.928;2023-03-25T03:44:35;100393.47;;;6.60;100.00
45050;BME280;61798;48.048;-1.928;2023-03-25T03:47:04;100393.97;;;6.55;100.00
45050;BME280;61798;48.048;-1.928;2023-03-25T03:49:17;100389.16;;;6.51;100.00
45050;BME280;61798;48.048;-1.928;2023-03-25T03:51:31;100393.13;;;6.55;100.00
45050;BME280;61798;48.048;-1.928;2023-03-25T03:53:46;100390.97;;;6.50;100.00
45050;BME280;61798;48.048;-1.928;2023-03-25T03:56:19;100383.50;;;6.45;100.00
45050;BME280;61798;48.048;-1.928;2023-03-25T03:58:31;100403.44;;;6.58;100.00
45050;BME280;61798;48.048;-1.928;2023-03-25T04:01:06;100407.44;;;6.54;100.00
45050;BME280;61798;48.048;-1.928;2023-03-25T04:03:23;100402.44;;;6.59;100.00
45050;BME280;61798;48.048;-1.928;2023-03-25T04:05:35;100375.59;;;6.29;100.00
45050;BME280;61798;48.048;-1.928;2023-03-25T04:08:07;100406.59;;;6.53;100.00
45050;BME280;61798;48.048;-1.928;2023-03-25T04:10:40;100415.44;;;6.45;100.00
45050;BME280;61798;48.048;-1.928;2023-03-25T04:12:53;100405.00;;;6.36;100.00
45050;BME280;61798;48.048;-1.928;2023-03-25T04:15:10;100417.81;;;6.40;100.00
45050;BME280;61798;48.048;-1.928;2023-03-25T04:17:18;100393.22;;;6.21;100.00
45050;BME280;61798;48.048;-1.928;2023-03-25T04:19:26;100417.13;;;6.38;100.00
45050;BME280;61798;48.048;-1.928;2023-03-25T04:21:33;100420.13;;;6.43;100.00
45050;BME280;61798;48.048;-1.928;2023-03-25T04:23:43;100407.84;;;6.26;100.00
45050;BME280;61798;48.048;-1.928;2023-03-25T04:25:52;100425.31;;;6.28;100.00
45050;BME280;61798;48.048;-1.928;2023-03-25T04:27:58;100434.78;;;6.31;100.00
45050;BME280;61798;48.048;-1.928;2023-03-25T04:30:06;100412.88;;;6.20;100.00
45050;BME280;61798;48.048;-1.928;2023-03-25T04:32:17;100403.56;;;6.16;100.00
45050;BME280;61798;48.048;-1.928;2023-03-25T04:34:24;100390.25;;;5.99;100.00
45050;BME280;61798;48.048;-1.928;2023-03-25T04:36:33;100440.13;;;6.31;100.00
45050;BME280;61798;48.048;-1.928;2023-03-25T04:38:44;100437.97;;;6.26;100.00
45050;BME280;61798;48.048;-1.928;2023-03-25T04:40:53;100418.19;;;6.03;100.00
45050;BME280;61798;48.048;-1.928;2023-03-25T04:43:00;100419.19;;;6.11;100.00
45050;BME280;61798;48.048;-1.928;2023-03-25T04:45:09;100449.09;;;6.21;100.00
45050;BME280;61798;48.048;-1.928;2023-03-25T04:47:23;100458.41;;;6.26;100.00
45050;BME280;61798;48.048;-1.928;2023-03-25T04:49:34;100438.50;;;6.13;100.00
45050;BME280;61798;48.048;-1.928;2023-03-25T04:51:41;100457.41;;;6.27;100.00
45050;BME280;61798;48.048;-1.928;2023-03-25T04:53:51;100431.63;;;6.02;100.00
45050;BME280;61798;48.048;-1.928;2023-03-25T04:55:58;100463.91;;;6.24;100.00
45050;BME280;61798;48.048;-1.928;2023-03-25T04:58:08;100458.75;;;6.22;100.00
45050;BME280;61798;48.048;-1.928;2023-03-25T05:00:18;100459.59;;;6.23;100.00
45050;BME280;61798;48.048;-1.928;2023-03-25T05:02:27;100443.81;;;6.13;100.00
45050;BME280;61798;48.048;-1.928;2023-03-25T05:04:36;100464.41;;;6.19;100.00
45050;BME280;61798;48.048;-1.928;2023-03-25T05:06:46;100463.44;;;6.12;100.00
45050;BME280;61798;48.048;-1.928;2023-03-25T05:08:55;100439.81;;;6.00;100.00
45050;BME280;61798;48.048;-1.928;2023-03-25T05:11:02;100448.47;;;6.11;100.00
45050;BME280;61798;48.048;-1.928;2023-03-25T05:13:10;100453.41;;;6.06;100.00
45050;BME280;61798;48.048;-1.928;2023-03-25T05:15:20;100468.72;;;6.03;100.00
45050;BME280;61798;48.048;-1.928;2023-03-25T05:17:27;100466.56;;;5.99;100.00
45050;BME280;61798;48.048;-1.928;2023-03-25T05:19:35;100465.41;;;6.10;100.00
45050;BME280;61798;48.048;-1.928;2023-03-25T05:21:52;100486.69;;;6.18;100.00
45050;BME280;61798;48.048;-1.928;2023-03-25T05:24:03;100473.25;;;6.11;100.00
45050;BME280;61798;48.048;-1.928;2023-03-25T05:26:14;100450.25;;;5.93;100.00
45050;BME280;61798;48.048;-1.928;2023-03-25T05:28:22;100486.69;;;6.18;100.00
45050;BME280;61798;48.048;-1.928;2023-03-25T05:30:29;100477.19;;;6.07;100.00
45050;BME280;61798;48.048;-1.928;2023-03-25T05:32:39;100490.38;;;6.09;100.00
45050;BME280;61798;48.048;-1.928;2023-03-25T05:34:46;100500.00;;;6.18;100.00
45050;BME280;61798;48.048;-1.928;2023-03-25T05:36:54;100487.03;;;6.15;100.00
45050;BME280;61798;48.048;-1.928;2023-03-25T05:39:02;100505.31;;;6.18;100.00
45050;BME280;61798;48.048;-1.928;2023-03-25T05:41:13;100506.00;;;6.20;100.00
45050;BME280;61798;48.048;-1.928;2023-03-25T05:43:21;100508.47;;;6.22;100.00
45050;BME280;61798;48.048;-1.928;2023-03-25T05:45:28;100479.22;;;5.97;100.00
45050;BME280;61798;48.048;-1.928;2023-03-25T05:47:36;100500.84;;;6.10;100.00
45050;BME280;61798;48.048;-1.928;2023-03-25T05:49:44;100511.00;;;6.23;100.00
45050;BME280;61798;48.048;-1.928;2023-03-25T05:51:51;100527.44;;;6.19;100.00
45050;BME280;61798;48.048;-1.928;2023-03-25T05:54:01;100535.94;;;6.22;100.00
45050;BME280;61798;48.048;-1.928;2023-03-25T05:56:11;100477.88;;;5.92;100.00
45050;BME280;61798;48.048;-1.928;2023-03-25T05:58:19;100472.72;;;5.91;100.00
45050;BME280;61798;48.048;-1.928;2023-03-25T06:00:27;100525.97;;;6.24;100.00
45050;BME280;61798;48.048;-1.928;2023-03-25T06:02:34;100519.97;;;6.14;100.00
45050;BME280;61798;48.048;-1.928;2023-03-25T06:04:47;100544.59;;;6.24;100.00
45050;BME280;61798;48.048;-1.928;2023-03-25T06:06:55;100522.63;;;6.14;100.00
45050;BME280;61798;48.048;-1.928;2023-03-25T06:09:01;100519.97;;;6.14;100.00
45050;BME280;61798;48.048;-1.928;2023-03-25T06:11:08;100542.09;;;6.23;100.00
45050;BME280;61798;48.048;-1.928;2023-03-25T06:13:15;100542.44;;;6.28;100.00
45050;BME280;61798;48.048;-1.928;2023-03-25T06:15:21;100552.88;;;6.38;100.00
45050;BME280;61798;48.048;-1.928;2023-03-25T06:17:33;100543.91;;;6.31;100.00
45050;BME280;61798;48.048;-1.928;2023-03-25T06:19:43;100546.25;;;6.34;100.00
45050;BME280;61798;48.048;-1.928;2023-03-25T06:21:49;100543.41;;;6.36;100.00
45050;BME280;61798;48.048;-1.928;2023-03-25T06:23:57;100545.25;;;6.35;100.00
45050;BME280;61798;48.048;-1.928;2023-03-25T06:26:04;100528.44;;;6.26;100.00
45050;BME280;61798;48.048;-1.928;2023-03-25T06:28:10;100523.78;;;6.20;100.00
45050;BME280;61798;48.048;-1.928;2023-03-25T06:30:19;100548.56;;;6.37;100.00
45050;BME280;61798;48.048;-1.928;2023-03-25T06:32:30;100506.84;;;6.21;100.00
45050;BME280;61798;48.048;-1.928;2023-03-25T06:34:37;100550.56;;;6.43;100.00
45050;BME280;61798;48.048;-1.928;2023-03-25T06:36:44;100553.56;;;6.40;100.00
45050;BME280;61798;48.048;-1.928;2023-03-25T06:38:50;100538.59;;;6.31;100.00
45050;BME280;61798;48.048;-1.928;2023-03-25T06:40:56;100560.53;;;6.41;100.00
45050;BME280;61798;48.048;-1.928;2023-03-25T06:43:04;100545.59;;;6.40;100.00
45050;BME280;61798;48.048;-1.928;2023-03-25T06:45:11;100558.22;;;6.38;100.00
45050;BME280;61798;48.048;-1.928;2023-03-25T06:47:18;100547.56;;;6.38;100.00
45050;BME280;61798;48.048;-1.928;2023-03-25T06:49:24;100541.09;;;6.32;100.00
45050;BME280;61798;48.048;-1.928;2023-03-25T06:51:31;100544.91;;;6.38;100.00
45050;BME280;61798;48.048;-1.928;2023-03-25T06:53:38;100539.28;;;6.33;100.00
45050;BME280;61798;48.048;-1.928;2023-03-25T06:55:46;100540.75;;;6.36;100.00
45050;BME280;61798;48.048;-1.928;2023-03-25T06:57:56;100550.88;;;6.57;100.00
45050;BME280;61798;48.048;-1.928;2023-03-25T07:00:05;100508.47;;;6.30;100.00
45050;BME280;61798;48.048;-1.928;2023-03-25T07:02:13;100551.69;;;6.58;100.00
45050;BME280;61798;48.048;-1.928;2023-03-25T07:04:21;100555.03;;;6.60;100.00
45050;BME280;61798;48.048;-1.928;2023-03-25T07:06:28;100547.41;;;6.57;100.00
45050;BME280;61798;48.048;-1.928;2023-03-25T07:08:37;100551.69;;;6.58;100.00
45050;BME280;61798;48.048;-1.928;2023-03-25T07:10:44;100536.41;;;6.51;100.00
45050;BME280;61798;48.048;-1.928;2023-03-25T07:12:50;100558.84;;;6.65;100.00
45050;BME280;61798;48.048;-1.928;2023-03-25T07:14:57;100566.53;;;6.69;100.00
45050;BME280;61798;48.048;-1.928;2023-03-25T07:17:05;100576.50;;;6.75;100.00
45050;BME280;61798;48.048;-1.928;2023-03-25T07:19:11;100574.16;;;6.72;100.00
45050;BME280;61798;48.048;-1.928;2023-03-25T07:21:17;100570.47;;;6.73;100.00
45050;BME280;61798;48.048;-1.928;2023-03-25T07:23:24;100548.88;;;6.59;100.00
45050;BME280;61798;48.048;-1.928;2023-03-25T07:25:30;100540.56;;;6.54;100.00
45050;BME280;61798;48.048;-1.928;2023-03-25T07:27:36;100564.19;;;6.65;100.00
45050;BME280;61798;48.048;-1.928;2023-03-25T07:29:42;100574.16;;;6.72;100.00
45050;BME280;61798;48.048;-1.928;2023-03-25T07:31:48;100585.47;;;6.82;100.00
45050;BME280;61798;48.048;-1.928;2023-03-25T07:33:53;100599.25;;;6.94;100.00
45050;BME280;61798;48.048;-1.928;2023-03-25T07:36:00;100569.00;;;6.70;100.00
45050;BME280;61798;48.048;-1.928;2023-03-25T07:38:06;100609.75;;;6.96;100.00
45050;BME280;61798;48.048;-1.928;2023-03-25T07:40:14;100597.44;;;6.86;100.00
45050;BME280;61798;48.048;-1.928;2023-03-25T07:42:20;100599.94;;;6.96;100.00
45050;BME280;61798;48.048;-1.928;2023-03-25T07:44:26;100612.09;;;6.99;100.00
45050;BME280;61798;48.048;-1.928;2023-03-25T07:46:32;100617.41;;;6.99;100.00
45050;BME280;61798;48.048;-1.928;2023-03-25T07:48:38;100574.81;;;6.82;100.00
45050;BME280;61798;48.048;-1.928;2023-03-25T07:50:44;100598.63;;;6.92;100.00
45050;BME280;61798;48.048;-1.928;2023-03-25T07:52:50;100619.88;;;7.09;100.00
45050;BME280;61798;48.048;-1.928;2023-03-25T07:54:56;100622.38;;;7.11;100.00
45050;BME280;61798;48.048;-1.928;2023-03-25T07:57:03;100599.25;;;7.03;100.00
45050;BME280;61798;48.048;-1.928;2023-03-25T07:59:09;100625.34;;;7.24;100.00
45050;BME280;61798;48.048;-1.928;2023-03-25T08:01:15;100635.31;;;7.30;100.00
45050;BME280;61798;48.048;-1.928;2023-03-25T08:03:21;100610.84;;;7.27;100.00
45050;BME280;61798;48.048;-1.928;2023-03-25T08:05:27;100624.81;;;7.29;100.00
45050;BME280;61798;48.048;-1.928;2023-03-25T08:07:34;100637.78;;;7.40;100.00
45050;BME280;61798;48.048;-1.928;2023-03-25T08:09:40;100601.03;;;7.19;100.00
45050;BME280;61798;48.048;-1.928;2023-03-25T08:11:47;100610.50;;;7.22;100.00
45050;BME280;61798;48.048;-1.928;2023-03-25T08:13:53;100622.00;;;7.30;100.00
45050;BME280;61798;48.048;-1.928;2023-03-25T08:15:59;100621.63;;;7.34;100.00
45050;BME280;61798;48.048;-1.928;2023-03-25T08:18:06;100598.84;;;7.31;100.00
45050;BME280;61798;48.048;-1.928;2023-03-25T08:20:12;100663.84;;;7.70;100.00
45050;BME280;61798;48.048;-1.928;2023-03-25T08:22:19;100656.19;;;7.67;100.00
45050;BME280;61798;48.048;-1.928;2023-03-25T08:24:25;100644.22;;;7.63;100.00
45050;BME280;61798;48.048;-1.928;2023-03-25T08:26:34;100659.47;;;7.78;100.00
45050;BME280;61798;48.048;-1.928;2023-03-25T08:28:40;100666.28;;;7.80;100.00
45050;BME280;61798;48.048;-1.928;2023-03-25T08:30:47;100667.44;;;7.86;100.00
45050;BME280;61798;48.048;-1.928;2023-03-25T08:32:53;100641.53;;;7.63;100.00
45050;BME280;61798;48.048;-1.928;2023-03-25T08:35:00;100650.84;;;7.76;100.00
45050;BME280;61798;48.048;-1.928;2023-03-25T08:37:06;100677.25;;;7.94;100.00
45050;BME280;61798;48.048;-1.928;2023-03-25T08:39:12;100658.94;;;7.91;100.00
45050;BME280;61798;48.048;-1.928;2023-03-25T08:41:21;100682.03;;;8.07;100.00
45050;BME280;61798;48.048;-1.928;2023-03-25T08:43:27;100671.88;;;8.02;100.00
45050;BME280;61798;48.048;-1.928;2023-03-25T08:45:33;100648.25;;;7.91;100.00
45050;BME280;61798;48.048;-1.928;2023-03-25T08:47:42;100638.75;;;7.88;100.00
45050;BME280;61798;48.048;-1.928;2023-03-25T08:49:48;100655.69;;;8.04;100.00
45050;BME280;61798;48.048;-1.928;2023-03-25T08:51:54;100669.28;;;8.18;100.00
45050;BME280;61798;48.048;-1.928;2023-03-25T08:54:02;100659.97;;;8.13;100.00
45050;BME280;61798;48.048;-1.928;2023-03-25T08:56:09;100660.06;;;8.20;100.00
45050;BME280;61798;48.048;-1.928;2023-03-25T08:58:15;100672.84;;;8.33;100.00
45050;BME280;61798;48.048;-1.928;2023-03-25T09:00:21;100668.88;;;8.29;100.00
45050;BME280;61798;48.048;-1.928;2023-03-25T09:02:29;100658.19;;;8.29;100.00
45050;BME280;61798;48.048;-1.928;2023-03-25T09:04:36;100636.59;;;8.16;100.00
45050;BME280;61798;48.048;-1.928;2023-03-25T09:06:43;100652.84;;;8.29;100.00
45050;BME280;61798;48.048;-1.928;2023-03-25T09:08:49;100645.84;;;8.28;100.00
45050;BME280;61798;48.048;-1.928;2023-03-25T09:10:56;100644.16;;;8.35;100.00
45050;BME280;61798;48.048;-1.928;2023-03-25T09:13:02;100639.28;;;8.39;100.00
45050;BME280;61798;48.048;-1.928;2023-03-25T09:15:09;100688.69;;;8.67;100.00
45050;BME280;61798;48.048;-1.928;2023-03-25T09:17:16;100653.88;;;8.52;100.00
45050;BME280;61798;48.048;-1.928;2023-03-25T09:19:22;100665.88;;;8.80;100.00
45050;BME280;61798;48.048;-1.928;2023-03-25T09:21:29;100681.72;;;8.81;100.00
45050;BME280;61798;48.048;-1.928;2023-03-25T09:23:35;100628.19;;;8.51;100.00
45050;BME280;61798;48.048;-1.928;2023-03-25T09:25:41;100652.75;;;8.70;100.00
45050;BME280;61798;48.048;-1.928;2023-03-25T09:27:47;100654.63;;;8.84;100.00
45050;BME280;61798;48.048;-1.928;2023-03-25T09:29:53;100649.56;;;8.74;100.00
45050;BME280;61798;48.048;-1.928;2023-03-25T09:32:00;100675.56;;;8.96;100.00
45050;BME280;61798;48.048;-1.928;2023-03-25T09:34:06;100695.25;;;9.03;100.00
45050;BME280;61798;48.048;-1.928;2023-03-25T09:36:12;100701.38;;;9.04;100.00
45050;BME280;61798;48.048;-1.928;2023-03-25T09:38:18;100689.22;;;9.01;100.00
45050;BME280;61798;48.048;-1.928;2023-03-25T09:40:24;100657.97;;;8.86;100.00
45050;BME280;61798;48.048;-1.928;2023-03-25T09:42:43;100701.91;;;9.23;100.00
45050;BME280;61798;48.048;-1.928;2023-03-25T09:47:10;100683.91;;;9.16;100.00
45050;BME280;61798;48.048;-1.928;2023-03-25T09:49:23;100674.97;;;9.24;100.00
45050;BME280;61798;48.048;-1.928;2023-03-25T09:51:31;100693.88;;;9.38;100.00
45050;BME280;61798;48.048;-1.928;2023-03-25T09:56:26;100702.38;;;9.41;100.00
45050;BME280;61798;48.048;-1.928;2023-03-25T09:58:42;100706.53;;;9.44;100.00
45050;BME280;61798;48.048;-1.928;2023-03-25T10:00:57;100663.09;;;9.27;100.00
45050;BME280;61798;48.048;-1.928;2023-03-25T10:03:29;100670.28;;;9.41;100.00
45050;BME280;61798;48.048;-1.928;2023-03-25T10:06:17;100666.31;;;9.52;100.00
45050;BME280;61798;48.048;-1.928;2023-03-25T10:08:37;100689.56;;;9.67;100.00
45050;BME280;61798;48.048;-1.928;2023-03-25T10:13:44;100695.59;;;9.91;100.00
45050;BME280;61798;48.048;-1.928;2023-03-25T10:23:29;100689.91;;;9.94;100.00
45050;BME280;61798;48.048;-1.928;2023-03-25T10:25:41;100684.09;;;9.91;100.00
45050;BME280;61798;48.048;-1.928;2023-03-25T10:27:51;100687.56;;;10.07;100.00
45050;BME280;61798;48.048;-1.928;2023-03-25T10:30:03;100683.34;;;10.19;100.00
45050;BME280;61798;48.048;-1.928;2023-03-25T10:32:27;100646.84;;;9.96;100.00
45050;BME280;61798;48.048;-1.928;2023-03-25T10:34:39;100676.88;;;10.29;100.00
45050;BME280;61798;48.048;-1.928;2023-03-25T10:36:52;100664.59;;;10.19;100.00
45050;BME280;61798;48.048;-1.928;2023-03-25T10:39:09;100666.66;;;10.17;100.00
45050;BME280;61798;48.048;-1.928;2023-03-25T10:41:32;100654.66;;;10.13;100.00
45050;BME280;61798;48.048;-1.928;2023-03-25T10:43:41;100680.88;;;10.40;100.00
45050;BME280;61798;48.048;-1.928;2023-03-25T10:45:48;100651.22;;;10.19;100.00
45050;BME280;61798;48.048;-1.928;2023-03-25T10:48:23;100642.50;;;10.32;100.00
45050;BME280;61798;48.048;-1.928;2023-03-25T10:50:28;100650.84;;;10.44;100.00
45050;BME280;61798;48.048;-1.928;2023-03-25T10:52:34;100657.09;;;10.52;100.00
45050;BME280;61798;48.048;-1.928;2023-03-25T10:54:44;100652.28;;;10.62;100.00
45050;BME280;61798;48.048;-1.928;2023-03-25T10:56:54;100680.66;;;10.78;100.00
45050;BME280;61798;48.048;-1.928;2023-03-25T10:59:12;100674.72;;;10.83;100.00
45050;BME280;61798;48.048;-1.928;2023-03-25T11:01:33;100653.31;;;10.61;100.00
45050;BME280;61798;48.048;-1.928;2023-03-25T11:03:42;100666.88;;;10.82;100.00
45050;BME280;61798;48.048;-1.928;2023-03-25T11:05:48;100664.53;;;11.00;100.00
45050;BME280;61798;48.048;-1.928;2023-03-25T11:07:58;100631.28;;;10.66;100.00
45050;BME280;61798;48.048;-1.928;2023-03-25T11:12:21;100666.19;;;11.02;100.00
45050;BME280;61798;48.048;-1.928;2023-03-25T11:14:28;100648.00;;;10.97;100.00
45050;BME280;61798;48.048;-1.928;2023-03-25T11:16:40;100666.72;;;11.19;100.00
45050;BME280;61798;48.048;-1.928;2023-03-25T11:18:47;100623.91;;;11.04;100.00
45050;BME280;61798;48.048;-1.928;2023-03-25T11:21:00;100638.31;;;10.96;100.00
45050;BME280;61798;48.048;-1.928;2023-03-25T11:23:25;100650.25;;;10.93;100.00
45050;BME280;61798;48.048;-1.928;2023-03-25T11:25:37;100674.81;;;10.97;100.00
45050;BME280;61798;48.048;-1.928;2023-03-25T11:27:48;100671.59;;;11.08;100.00
45050;BME280;61798;48.048;-1.928;2023-03-25T11:30:03;100657.31;;;11.01;100.00
45050;BME280;61798;48.048;-1.928;2023-03-25T11:32:14;100656.38;;;11.16;100.00
45050;BME280;61798;48.048;-1.928;2023-03-25T11:34:22;100660.31;;;11.20;100.00
45050;BME280;61798;48.048;-1.928;2023-03-25T11:36:38;100646.31;;;11.18;100.00
45050;BME280;61798;48.048;-1.928;2023-03-25T11:38:51;100648.19;;;11.24;100.00
45050;BME280;61798;48.048;-1.928;2023-03-25T11:41:02;100657.91;;;11.25;100.00
45050;BME280;61798;48.048;-1.928;2023-03-25T11:43:09;100655.41;;;11.24;100.00
45050;BME280;61798;48.048;-1.928;2023-03-25T11:45:36;100650.94;;;11.38;100.00
45050;BME280;61798;48.048;-1.928;2023-03-25T11:47:51;100662.69;;;11.37;100.00
45050;BME280;61798;48.048;-1.928;2023-03-25T11:50:04;100638.16;;;11.04;100.00
45050;BME280;61798;48.048;-1.928;2023-03-25T11:52:43;100652.28;;;11.20;100.00
45050;BME280;61798;48.048;-1.928;2023-03-25T11:54:55;100663.50;;;11.30;100.00
45050;BME280;61798;48.048;-1.928;2023-03-25T11:57:16;100653.22;;;11.34;100.00
45050;BME280;61798;48.048;-1.928;2023-03-25T11:59:44;100654.97;;;11.20;100.00
45050;BME280;61798;48.048;-1.928;2023-03-25T12:02:08;100640.22;;;11.02;100.00
45050;BME280;61798;48.048;-1.928;2023-03-25T12:04:23;100654.31;;;10.82;100.00
45050;BME280;61798;48.048;-1.928;2023-03-25T12:06:31;100642.78;;;10.88;100.00